sensor_id;sensor_type;location;lat;lon;timestamp;P1;durP1;ratioP1;P2;durP2;ratioP2
27857;SDS011;16852;51.446;6.528;2023-06-22T00:01:33;6.72;;;4.70;;
27857;SDS011;16852;51.446;6.528;2023-06-22T00:03:34;9.25;;;4.70;;
27857;SDS011;16852;51.446;6.528;2023-06-22T00:05:35;6.10;;;4.35;;
27857;SDS011;16852;51.446;6.528;2023-06-22T00:07:36;7.45;;;4.82;;
27857;SDS011;16852;51.446;6.528;2023-06-22T00:09:36;4.80;;;3.42;;
27857;SDS011;16852;51.446;6.528;2023-06-22T00:11:37;6.32;;;3.78;;
27857;SDS011;16852;51.446;6.528;2023-06-22T00:13:38;6.55;;;3.95;;
27857;SDS011;16852;51.446;6.528;2023-06-22T00:15:39;6.03;;;4.18;;
27857;SDS011;16852;51.446;6.528;2023-06-22T00:17:41;7.30;;;4.65;;
27857;SDS011;16852;51.446;6.528;2023-06-22T00:19:41;6.13;;;4.03;;
27857;SDS011;16852;51.446;6.528;2023-06-22T00:21:42;5.45;;;4.00;;
27857;SDS011;16852;51.446;6.528;2023-06-22T00:23:47;5.35;;;3.70;;
27857;SDS011;16852;51.446;6.528;2023-06-22T00:25:47;7.97;;;4.18;;
27857;SDS011;16852;51.446;6.528;2023-06-22T00:27:48;10.48;;;5.30;;
27857;SDS011;16852;51.446;6.528;2023-06-22T00:29:49;5.68;;;4.20;;
27857;SDS011;16852;51.446;6.528;2023-06-22T00:31:49;5.40;;;4.07;;
27857;SDS011;16852;51.446;6.528;2023-06-22T00:33:50;5.20;;;4.07;;
27857;SDS011;16852;51.446;6.528;2023-06-22T00:35:50;4.35;;;3.58;;
27857;SDS011;16852;51.446;6.528;2023-06-22T00:37:52;4.18;;;3.15;;
27857;SDS011;16852;51.446;6.528;2023-06-22T00:40:00;5.20;;;3.58;;
27857;SDS011;16852;51.446;6.528;2023-06-22T00:42:00;5.70;;;4.10;;
27857;SDS011;16852;51.446;6.528;2023-06-22T00:44:01;6.50;;;3.90;;
27857;SDS011;16852;51.446;6.528;2023-06-22T00:46:02;7.53;;;4.63;;
27857;SDS011;16852;51.446;6.528;2023-06-22T00:48:03;5.80;;;4.05;;
27857;SDS011;16852;51.446;6.528;2023-06-22T00:50:05;4.85;;;3.92;;
27857;SDS011;16852;51.446;6.528;2023-06-22T00:52:07;5.65;;;4.03;;
27857;SDS011;16852;51.446;6.528;2023-06-22T00:54:13;7.10;;;4.90;;
27857;SDS011;16852;51.446;6.528;2023-06-22T00:56:14;6.57;;;4.13;;
27857;SDS011;16852;51.446;6.528;2023-06-22T00:58:15;6.30;;;3.97;;
27857;SDS011;16852;51.446;6.528;2023-06-22T01:00:15;4.57;;;3.72;;
27857;SDS011;16852;51.446;6.528;2023-06-22T01:04:19;4.60;;;3.33;;
27857;SDS011;16852;51.446;6.528;2023-06-22T01:06:22;6.32;;;4.03;;
27857;SDS011;16852;51.446;6.528;2023-06-22T01:08:30;6.32;;;4.63;;
27857;SDS011;16852;51.446;6.528;2023-06-22T01:13:24;5.10;;;3.90;;
27857;SDS011;16852;51.446;6.528;2023-06-22T01:15:40;5.60;;;4.20;;
27857;SDS011;16852;51.446;6.528;2023-06-22T01:17:46;5.13;;;3.95;;
27857;SDS011;16852;51.446;6.528;2023-06-22T01:19:49;6.38;;;4.10;;
27857;SDS011;16852;51.446;6.528;2023-06-22T01:21:56;6.70;;;4.65;;
27857;SDS011;16852;51.446;6.528;2023-06-22T01:26:25;5.72;;;4.50;;
27857;SDS011;16852;51.446;6.528;2023-06-22T01:28:43;6.13;;;4.78;;
27857;SDS011;16852;51.446;6.528;2023-06-22T01:30:49;6.70;;;4.68;;
27857;SDS011;16852;51.446;6.528;2023-06-22T01:33:05;6.35;;;4.20;;
27857;SDS011;16852;51.446;6.528;2023-06-22T01:35:07;5.43;;;4.50;;
27857;SDS011;16852;51.446;6.528;2023-06-22T01:37:10;5.43;;;4.35;;
27857;SDS011;16852;51.446;6.528;2023-06-22T01:39:11;5.60;;;4.37;;
27857;SDS011;16852;51.446;6.528;2023-06-22T01:41:13;6.85;;;4.40;;
27857;SDS011;16852;51.446;6.528;2023-06-22T01:43:16;7.40;;;3.83;;
27857;SDS011;16852;51.446;6.528;2023-06-22T01:45:17;6.32;;;4.35;;
27857;SDS011;16852;51.446;6.528;2023-06-22T01:47:22;8.98;;;5.45;;
27857;SDS011;16852;51.446;6.528;2023-06-22T01:49:23;8.25;;;6.05;;
27857;SDS011;16852;51.446;6.528;2023-06-22T01:51:23;8.10;;;5.45;;
27857;SDS011;16852;51.446;6.528;2023-06-22T01:53:24;6.38;;;5.40;;
27857;SDS011;16852;51.446;6.528;2023-06-22T01:55:25;6.65;;;5.05;;
27857;SDS011;16852;51.446;6.528;2023-06-22T01:57:26;6.43;;;4.60;;
27857;SDS011;16852;51.446;6.528;2023-06-22T02:00:10;7.20;;;5.05;;
27857;SDS011;16852;51.446;6.528;2023-06-22T02:01:54;6.25;;;4.50;;
27857;SDS011;16852;51.446;6.528;2023-06-22T02:04:09;7.18;;;4.88;;
27857;SDS011;16852;51.446;6.528;2023-06-22T02:06:14;7.20;;;5.45;;
27857;SDS011;16852;51.446;6.528;2023-06-22T02:08:20;8.55;;;5.13;;
27857;SDS011;16852;51.446;6.528;2023-06-22T02:10:23;5.60;;;4.47;;
27857;SDS011;16852;51.446;6.528;2023-06-22T02:12:25;6.35;;;4.82;;
27857;SDS011;16852;51.446;6.528;2023-06-22T02:16:30;6.63;;;4.60;;
27857;SDS011;16852;51.446;6.528;2023-06-22T02:18:32;6.70;;;4.95;;
27857;SDS011;16852;51.446;6.528;2023-06-22T02:20:39;7.70;;;5.07;;
27857;SDS011;16852;51.446;6.528;2023-06-22T02:22:40;9.00;;;5.05;;
27857;SDS011;16852;51.446;6.528;2023-06-22T02:24:41;6.00;;;4.85;;
27857;SDS011;16852;51.446;6.528;2023-06-22T02:26:42;7.20;;;5.50;;
27857;SDS011;16852;51.446;6.528;2023-06-22T02:28:45;7.70;;;5.10;;
27857;SDS011;16852;51.446;6.528;2023-06-22T02:30:46;8.15;;;5.07;;
27857;SDS011;16852;51.446;6.528;2023-06-22T02:32:46;7.75;;;5.53;;
27857;SDS011;16852;51.446;6.528;2023-06-22T02:34:47;6.68;;;4.82;;
27857;SDS011;16852;51.446;6.528;2023-06-22T02:36:48;5.75;;;4.90;;
27857;SDS011;16852;51.446;6.528;2023-06-22T02:38:52;6.28;;;4.88;;
27857;SDS011;16852;51.446;6.528;2023-06-22T02:40:54;7.40;;;5.13;;
27857;SDS011;16852;51.446;6.528;2023-06-22T02:42:54;6.93;;;5.13;;
27857;SDS011;16852;51.446;6.528;2023-06-22T02:44:55;6.53;;;4.70;;
27857;SDS011;16852;51.446;6.528;2023-06-22T02:46:56;7.15;;;5.25;;
27857;SDS011;16852;51.446;6.528;2023-06-22T02:48:56;6.72;;;5.07;;
27857;SDS011;16852;51.446;6.528;2023-06-22T02:50:57;8.45;;;4.88;;
27857;SDS011;16852;51.446;6.528;2023-06-22T02:52:57;7.40;;;5.20;;
27857;SDS011;16852;51.446;6.528;2023-06-22T02:54:58;5.65;;;4.97;;
27857;SDS011;16852;51.446;6.528;2023-06-22T02:56:59;7.75;;;5.50;;
27857;SDS011;16852;51.446;6.528;2023-06-22T02:59:02;6.88;;;4.72;;
27857;SDS011;16852;51.446;6.528;2023-06-22T03:01:06;6.85;;;5.07;;
27857;SDS011;16852;51.446;6.528;2023-06-22T03:03:06;7.43;;;5.25;;
27857;SDS011;16852;51.446;6.528;2023-06-22T03:05:07;9.40;;;5.65;;
27857;SDS011;16852;51.446;6.528;2023-06-22T03:07:13;7.85;;;5.90;;
27857;SDS011;16852;51.446;6.528;2023-06-22T03:09:13;6.50;;;4.95;;
27857;SDS011;16852;51.446;6.528;2023-06-22T03:11:14;7.15;;;5.63;;
27857;SDS011;16852;51.446;6.528;2023-06-22T03:13:14;7.03;;;5.45;;
27857;SDS011;16852;51.446;6.528;2023-06-22T03:15:16;5.67;;;4.83;;
27857;SDS011;16852;51.446;6.528;2023-06-22T03:17:19;7.05;;;4.95;;
27857;SDS011;16852;51.446;6.528;2023-06-22T03:19:20;6.47;;;4.90;;
27857;SDS011;16852;51.446;6.528;2023-06-22T03:21:22;6.85;;;5.28;;
27857;SDS011;16852;51.446;6.528;2023-06-22T03:23:23;9.60;;;6.85;;
27857;SDS011;16852;51.446;6.528;2023-06-22T03:25:23;8.00;;;6.22;;
27857;SDS011;16852;51.446;6.528;2023-06-22T03:27:24;7.25;;;6.32;;
27857;SDS011;16852;51.446;6.528;2023-06-22T03:29:24;7.95;;;5.88;;
27857;SDS011;16852;51.446;6.528;2023-06-22T03:31:25;9.73;;;7.20;;
27857;SDS011;16852;51.446;6.528;2023-06-22T03:33:26;10.82;;;6.68;;
27857;SDS011;16852;51.446;6.528;2023-06-22T03:35:26;8.35;;;6.57;;
27857;SDS011;16852;51.446;6.528;2023-06-22T03:37:28;8.73;;;6.43;;
27857;SDS011;16852;51.446;6.528;2023-06-22T03:39:29;7.33;;;5.67;;
27857;SDS011;16852;51.446;6.528;2023-06-22T03:41:29;6.93;;;5.40;;
27857;SDS011;16852;51.446;6.528;2023-06-22T03:43:30;11.13;;;6.35;;
27857;SDS011;16852;51.446;6.528;2023-06-22T03:45:31;9.32;;;5.88;;
27857;SDS011;16852;51.446;6.528;2023-06-22T03:47:32;7.80;;;5.68;;
27857;SDS011;16852;51.446;6.528;2023-06-22T03:49:33;11.73;;;6.30;;
27857;SDS011;16852;51.446;6.528;2023-06-22T03:51:34;6.75;;;5.60;;
27857;SDS011;16852;51.446;6.528;2023-06-22T03:53:35;8.25;;;6.05;;
27857;SDS011;16852;51.446;6.528;2023-06-22T03:55:35;7.93;;;6.50;;
27857;SDS011;16852;51.446;6.528;2023-06-22T03:57:36;7.88;;;6.35;;
27857;SDS011;16852;51.446;6.528;2023-06-22T03:59:37;8.75;;;6.15;;
27857;SDS011;16852;51.446;6.528;2023-06-22T04:01:37;8.55;;;6.47;;
27857;SDS011;16852;51.446;6.528;2023-06-22T04:03:38;8.10;;;6.95;;
27857;SDS011;16852;51.446;6.528;2023-06-22T04:05:39;7.30;;;5.85;;
27857;SDS011;16852;51.446;6.528;2023-06-22T04:07:40;8.02;;;6.30;;
27857;SDS011;16852;51.446;6.528;2023-06-22T04:09:41;7.13;;;5.95;;
27857;SDS011;16852;51.446;6.528;2023-06-22T04:11:41;7.50;;;6.40;;
27857;SDS011;16852;51.446;6.528;2023-06-22T04:13:42;7.90;;;5.80;;
27857;SDS011;16852;51.446;6.528;2023-06-22T04:15:43;8.93;;;6.03;;
27857;SDS011;16852;51.446;6.528;2023-06-22T04:17:43;9.50;;;6.72;;
27857;SDS011;16852;51.446;6.528;2023-06-22T04:19:44;8.52;;;6.18;;
27857;SDS011;16852;51.446;6.528;2023-06-22T04:21:44;10.70;;;6.85;;
27857;SDS011;16852;51.446;6.528;2023-06-22T04:23:45;13.77;;;7.40;;
27857;SDS011;16852;51.446;6.528;2023-06-22T04:25:46;7.32;;;5.90;;
27857;SDS011;16852;51.446;6.528;2023-06-22T04:27:47;9.02;;;6.20;;
27857;SDS011;16852;51.446;6.528;2023-06-22T04:29:48;9.30;;;5.43;;
27857;SDS011;16852;51.446;6.528;2023-06-22T04:31:48;10.73;;;6.22;;
27857;SDS011;16852;51.446;6.528;2023-06-22T04:33:50;10.07;;;6.72;;
27857;SDS011;16852;51.446;6.528;2023-06-22T04:35:51;7.60;;;6.20;;
27857;SDS011;16852;51.446;6.528;2023-06-22T04:37:52;8.80;;;6.88;;
27857;SDS011;16852;51.446;6.528;2023-06-22T04:39:54;9.07;;;7.15;;
27857;SDS011;16852;51.446;6.528;2023-06-22T04:41:55;7.15;;;5.93;;
27857;SDS011;16852;51.446;6.528;2023-06-22T04:44:00;8.25;;;6.15;;
27857;SDS011;16852;51.446;6.528;2023-06-22T04:46:00;10.40;;;6.60;;
27857;SDS011;16852;51.446;6.528;2023-06-22T04:50:04;7.65;;;5.95;;
27857;SDS011;16852;51.446;6.528;2023-06-22T04:52:06;8.43;;;7.00;;
27857;SDS011;16852;51.446;6.528;2023-06-22T04:54:08;9.40;;;6.95;;
27857;SDS011;16852;51.446;6.528;2023-06-22T04:56:09;11.73;;;7.00;;
27857;SDS011;16852;51.446;6.528;2023-06-22T04:58:10;9.32;;;6.55;;
27857;SDS011;16852;51.446;6.528;2023-06-22T05:02:17;10.77;;;8.00;;
27857;SDS011;16852;51.446;6.528;2023-06-22T05:04:17;8.02;;;6.63;;
27857;SDS011;16852;51.446;6.528;2023-06-22T05:06:18;8.35;;;6.93;;
27857;SDS011;16852;51.446;6.528;2023-06-22T05:08:19;7.50;;;6.28;;
27857;SDS011;16852;51.446;6.528;2023-06-22T05:10:19;7.53;;;6.53;;
27857;SDS011;16852;51.446;6.528;2023-06-22T05:12:20;8.48;;;7.00;;
27857;SDS011;16852;51.446;6.528;2023-06-22T05:14:20;7.88;;;6.40;;
27857;SDS011;16852;51.446;6.528;2023-06-22T05:16:21;8.20;;;6.60;;
27857;SDS011;16852;51.446;6.528;2023-06-22T05:18:26;8.50;;;6.88;;
27857;SDS011;16852;51.446;6.528;2023-06-22T05:20:27;10.53;;;8.03;;
27857;SDS011;16852;51.446;6.528;2023-06-22T05:22:28;8.05;;;6.70;;
27857;SDS011;16852;51.446;6.528;2023-06-22T05:24:28;8.55;;;6.55;;
27857;SDS011;16852;51.446;6.528;2023-06-22T05:26:29;9.77;;;7.28;;
27857;SDS011;16852;51.446;6.528;2023-06-22T05:28:31;7.88;;;6.78;;
27857;SDS011;16852;51.446;6.528;2023-06-22T05:30:33;8.10;;;6.35;;
27857;SDS011;16852;51.446;6.528;2023-06-22T05:32:34;8.32;;;6.75;;
27857;SDS011;16852;51.446;6.528;2023-06-22T05:34:35;8.18;;;5.93;;
27857;SDS011;16852;51.446;6.528;2023-06-22T05:36:35;6.75;;;5.65;;
27857;SDS011;16852;51.446;6.528;2023-06-22T05:38:45;7.38;;;6.20;;
27857;SDS011;16852;51.446;6.528;2023-06-22T05:40:46;8.38;;;6.53;;
27857;SDS011;16852;51.446;6.528;2023-06-22T05:42:46;8.55;;;6.50;;
27857;SDS011;16852;51.446;6.528;2023-06-22T05:44:47;7.22;;;6.05;;
27857;SDS011;16852;51.446;6.528;2023-06-22T05:46:48;10.05;;;5.97;;
27857;SDS011;16852;51.446;6.528;2023-06-22T05:48:48;8.55;;;6.32;;
27857;SDS011;16852;51.446;6.528;2023-06-22T05:50:49;9.23;;;6.63;;
27857;SDS011;16852;51.446;6.528;2023-06-22T05:52:50;8.20;;;6.45;;
27857;SDS011;16852;51.446;6.528;2023-06-22T05:54:50;7.35;;;6.25;;
27857;SDS011;16852;51.446;6.528;2023-06-22T05:56:51;7.57;;;6.38;;
27857;SDS011;16852;51.446;6.528;2023-06-22T05:58:51;8.32;;;6.70;;
27857;SDS011;16852;51.446;6.528;2023-06-22T06:00:52;11.43;;;8.38;;
27857;SDS011;16852;51.446;6.528;2023-06-22T06:02:53;9.65;;;7.50;;
27857;SDS011;16852;51.446;6.528;2023-06-22T06:04:53;8.48;;;7.38;;
27857;SDS011;16852;51.446;6.528;2023-06-22T06:06:54;9.95;;;6.88;;
27857;SDS011;16852;51.446;6.528;2023-06-22T06:08:55;8.63;;;7.40;;
27857;SDS011;16852;51.446;6.528;2023-06-22T06:10:55;8.60;;;7.18;;
27857;SDS011;16852;51.446;6.528;2023-06-22T06:12:57;7.95;;;6.72;;
27857;SDS011;16852;51.446;6.528;2023-06-22T06:14:58;9.00;;;7.18;;
27857;SDS011;16852;51.446;6.528;2023-06-22T06:16:59;8.75;;;6.95;;
27857;SDS011;16852;51.446;6.528;2023-06-22T06:18:59;11.52;;;7.55;;
27857;SDS011;16852;51.446;6.528;2023-06-22T06:21:00;9.38;;;7.68;;
27857;SDS011;16852;51.446;6.528;2023-06-22T06:23:00;9.73;;;7.15;;
27857;SDS011;16852;51.446;6.528;2023-06-22T06:25:01;11.07;;;8.52;;
27857;SDS011;16852;51.446;6.528;2023-06-22T06:27:02;11.38;;;8.13;;
27857;SDS011;16852;51.446;6.528;2023-06-22T06:29:04;10.13;;;6.95;;
27857;SDS011;16852;51.446;6.528;2023-06-22T06:31:05;9.50;;;7.47;;
27857;SDS011;16852;51.446;6.528;2023-06-22T06:33:07;8.88;;;7.47;;
27857;SDS011;16852;51.446;6.528;2023-06-22T06:35:09;8.43;;;6.43;;
27857;SDS011;16852;51.446;6.528;2023-06-22T06:37:10;10.13;;;7.47;;
27857;SDS011;16852;51.446;6.528;2023-06-22T06:39:10;8.88;;;6.80;;
27857;SDS011;16852;51.446;6.528;2023-06-22T06:41:11;8.95;;;6.82;;
27857;SDS011;16852;51.446;6.528;2023-06-22T06:43:15;9.38;;;7.97;;
27857;SDS011;16852;51.446;6.528;2023-06-22T06:45:19;9.38;;;7.47;;
27857;SDS011;16852;51.446;6.528;2023-06-22T06:47:22;10.05;;;7.75;;
27857;SDS011;16852;51.446;6.528;2023-06-22T06:49:23;10.15;;;7.60;;
27857;SDS011;16852;51.446;6.528;2023-06-22T06:51:24;10.05;;;8.10;;
27857;SDS011;16852;51.446;6.528;2023-06-22T06:53:24;9.70;;;8.07;;
27857;SDS011;16852;51.446;6.528;2023-06-22T06:55:25;9.43;;;7.68;;
27857;SDS011;16852;51.446;6.528;2023-06-22T06:57:26;9.90;;;7.68;;
27857;SDS011;16852;51.446;6.528;2023-06-22T06:59:28;10.90;;;7.85;;
27857;SDS011;16852;51.446;6.528;2023-06-22T07:01:30;10.25;;;7.70;;
27857;SDS011;16852;51.446;6.528;2023-06-22T07:03:34;10.82;;;8.55;;
27857;SDS011;16852;51.446;6.528;2023-06-22T07:05:35;11.25;;;8.75;;
27857;SDS011;16852;51.446;6.528;2023-06-22T07:07:36;9.45;;;7.80;;
27857;SDS011;16852;51.446;6.528;2023-06-22T07:09:37;8.57;;;6.82;;
27857;SDS011;16852;51.446;6.528;2023-06-22T07:11:37;14.60;;;9.20;;
27857;SDS011;16852;51.446;6.528;2023-06-22T07:13:38;12.70;;;8.20;;
27857;SDS011;16852;51.446;6.528;2023-06-22T07:15:38;11.45;;;8.43;;
27857;SDS011;16852;51.446;6.528;2023-06-22T07:17:39;10.32;;;8.45;;
27857;SDS011;16852;51.446;6.528;2023-06-22T07:19:42;13.55;;;9.13;;
27857;SDS011;16852;51.446;6.528;2023-06-22T07:21:43;13.15;;;7.63;;
27857;SDS011;16852;51.446;6.528;2023-06-22T07:23:44;10.95;;;8.05;;
27857;SDS011;16852;51.446;6.528;2023-06-22T07:25:44;11.48;;;8.55;;
27857;SDS011;16852;51.446;6.528;2023-06-22T07:27:46;11.10;;;8.02;;
27857;SDS011;16852;51.446;6.528;2023-06-22T07:30:07;9.52;;;7.85;;
27857;SDS011;16852;51.446;6.528;2023-06-22T07:32:08;10.77;;;8.07;;
27857;SDS011;16852;51.446;6.528;2023-06-22T07:34:09;9.85;;;7.45;;
27857;SDS011;16852;51.446;6.528;2023-06-22T07:36:09;10.50;;;8.20;;
27857;SDS011;16852;51.446;6.528;2023-06-22T07:38:10;9.70;;;6.97;;
27857;SDS011;16852;51.446;6.528;2023-06-22T07:40:11;8.80;;;7.18;;
27857;SDS011;16852;51.446;6.528;2023-06-22T07:42:11;9.60;;;8.02;;
27857;SDS011;16852;51.446;6.528;2023-06-22T07:44:12;9.85;;;7.88;;
27857;SDS011;16852;51.446;6.528;2023-06-22T07:46:13;10.90;;;8.68;;
27857;SDS011;16852;51.446;6.528;2023-06-22T07:48:13;9.80;;;8.32;;
27857;SDS011;16852;51.446;6.528;2023-06-22T07:50:14;11.38;;;8.00;;
27857;SDS011;16852;51.446;6.528;2023-06-22T07:52:14;9.07;;;7.82;;
27857;SDS011;16852;51.446;6.528;2023-06-22T07:54:15;10.75;;;8.55;;
27857;SDS011;16852;51.446;6.528;2023-06-22T07:56:16;12.98;;;10.07;;
27857;SDS011;16852;51.446;6.528;2023-06-22T07:58:20;13.43;;;9.80;;
27857;SDS011;16852;51.446;6.528;2023-06-22T08:00:21;16.70;;;12.15;;
27857;SDS011;16852;51.446;6.528;2023-06-22T08:02:22;13.27;;;9.57;;
27857;SDS011;16852;51.446;6.528;2023-06-22T08:04:22;14.90;;;10.85;;
27857;SDS011;16852;51.446;6.528;2023-06-22T08:06:23;15.32;;;11.63;;
27857;SDS011;16852;51.446;6.528;2023-06-22T08:08:23;15.30;;;10.20;;
27857;SDS011;16852;51.446;6.528;2023-06-22T08:10:24;15.27;;;9.57;;
27857;SDS011;16852;51.446;6.528;2023-06-22T08:12:25;10.73;;;7.82;;
27857;SDS011;16852;51.446;6.528;2023-06-22T08:14:26;12.13;;;8.45;;
27857;SDS011;16852;51.446;6.528;2023-06-22T08:16:27;11.57;;;7.95;;
27857;SDS011;16852;51.446;6.528;2023-06-22T08:18:28;11.43;;;7.82;;
27857;SDS011;16852;51.446;6.528;2023-06-22T08:20:28;10.10;;;7.97;;
27857;SDS011;16852;51.446;6.528;2023-06-22T08:22:29;11.70;;;8.60;;
27857;SDS011;16852;51.446;6.528;2023-06-22T08:24:30;10.43;;;8.35;;
27857;SDS011;16852;51.446;6.528;2023-06-22T08:26:30;13.75;;;9.68;;
27857;SDS011;16852;51.446;6.528;2023-06-22T08:28:33;12.05;;;8.88;;
27857;SDS011;16852;51.446;6.528;2023-06-22T08:30:33;10.80;;;8.43;;
27857;SDS011;16852;51.446;6.528;2023-06-22T08:32:34;11.18;;;8.55;;
27857;SDS011;16852;51.446;6.528;2023-06-22T08:34:35;10.88;;;8.90;;
27857;SDS011;16852;51.446;6.528;2023-06-22T08:36:36;14.32;;;9.48;;
27857;SDS011;16852;51.446;6.528;2023-06-22T08:38:37;12.88;;;7.60;;
27857;SDS011;16852;51.446;6.528;2023-06-22T08:40:38;12.68;;;8.77;;
27857;SDS011;16852;51.446;6.528;2023-06-22T08:42:40;18.33;;;13.90;;
27857;SDS011;16852;51.446;6.528;2023-06-22T08:44:41;16.02;;;10.40;;
27857;SDS011;16852;51.446;6.528;2023-06-22T08:46:42;10.55;;;8.27;;
27857;SDS011;16852;51.446;6.528;2023-06-22T08:48:42;11.07;;;8.85;;
27857;SDS011;16852;51.446;6.528;2023-06-22T08:50:43;15.32;;;11.80;;
27857;SDS011;16852;51.446;6.528;2023-06-22T08:52:43;12.80;;;9.63;;
27857;SDS011;16852;51.446;6.528;2023-06-22T08:54:46;12.48;;;9.38;;
27857;SDS011;16852;51.446;6.528;2023-06-22T08:56:46;12.75;;;10.02;;
27857;SDS011;16852;51.446;6.528;2023-06-22T08:58:47;12.27;;;8.70;;
27857;SDS011;16852;51.446;6.528;2023-06-22T09:00:48;13.43;;;9.60;;
27857;SDS011;16852;51.446;6.528;2023-06-22T09:02:49;11.25;;;9.15;;
27857;SDS011;16852;51.446;6.528;2023-06-22T09:04:49;13.10;;;10.00;;
27857;SDS011;16852;51.446;6.528;2023-06-22T09:06:55;10.82;;;9.38;;
27857;SDS011;16852;51.446;6.528;2023-06-22T09:08:56;16.15;;;11.80;;
27857;SDS011;16852;51.446;6.528;2023-06-22T09:10:59;12.82;;;9.80;;
27857;SDS011;16852;51.446;6.528;2023-06-22T09:13:00;11.73;;;9.48;;
27857;SDS011;16852;51.446;6.528;2023-06-22T09:15:00;14.98;;;10.98;;
27857;SDS011;16852;51.446;6.528;2023-06-22T09:17:02;9.48;;;7.55;;
27857;SDS011;16852;51.446;6.528;2023-06-22T09:19:03;12.73;;;8.50;;
27857;SDS011;16852;51.446;6.528;2023-06-22T09:21:03;11.88;;;9.57;;
27857;SDS011;16852;51.446;6.528;2023-06-22T09:23:04;13.55;;;9.00;;
27857;SDS011;16852;51.446;6.528;2023-06-22T09:25:05;12.43;;;10.07;;
27857;SDS011;16852;51.446;6.528;2023-06-22T09:27:06;11.25;;;8.50;;
27857;SDS011;16852;51.446;6.528;2023-06-22T09:29:06;10.65;;;8.80;;
27857;SDS011;16852;51.446;6.528;2023-06-22T09:31:07;11.50;;;8.82;;
27857;SDS011;16852;51.446;6.528;2023-06-22T09:33:07;14.20;;;10.45;;
27857;SDS011;16852;51.446;6.528;2023-06-22T09:35:08;11.57;;;9.48;;
27857;SDS011;16852;51.446;6.528;2023-06-22T09:37:09;11.15;;;9.02;;
27857;SDS011;16852;51.446;6.528;2023-06-22T09:39:10;10.85;;;8.23;;
27857;SDS011;16852;51.446;6.528;2023-06-22T09:41:10;10.93;;;8.88;;
27857;SDS011;16852;51.446;6.528;2023-06-22T09:43:11;18.00;;;11.13;;
27857;SDS011;16852;51.446;6.528;2023-06-22T09:45:12;15.07;;;11.20;;
27857;SDS011;16852;51.446;6.528;2023-06-22T09:47:12;10.38;;;8.13;;
27857;SDS011;16852;51.446;6.528;2023-06-22T09:49:13;10.45;;;8.10;;
27857;SDS011;16852;51.446;6.528;2023-06-22T09:51:14;8.98;;;7.57;;
27857;SDS011;16852;51.446;6.528;2023-06-22T09:53:14;13.88;;;9.98;;
27857;SDS011;16852;51.446;6.528;2023-06-22T09:55:15;12.68;;;9.65;;
27857;SDS011;16852;51.446;6.528;2023-06-22T09:57:16;12.07;;;9.32;;
27857;SDS011;16852;51.446;6.528;2023-06-22T09:59:17;19.27;;;10.98;;
27857;SDS011;16852;51.446;6.528;2023-06-22T10:01:17;15.68;;;11.77;;
27857;SDS011;16852;51.446;6.528;2023-06-22T10:03:18;14.55;;;10.55;;
27857;SDS011;16852;51.446;6.528;2023-06-22T10:05:19;10.85;;;9.27;;
27857;SDS011;16852;51.446;6.528;2023-06-22T10:07:19;12.25;;;8.77;;
27857;SDS011;16852;51.446;6.528;2023-06-22T10:09:20;13.10;;;10.68;;
27857;SDS011;16852;51.446;6.528;2023-06-22T10:11:21;12.30;;;9.25;;
27857;SDS011;16852;51.446;6.528;2023-06-22T10:13:27;13.02;;;9.88;;
27857;SDS011;16852;51.446;6.528;2023-06-22T10:15:27;12.93;;;9.32;;
27857;SDS011;16852;51.446;6.528;2023-06-22T10:17:28;13.68;;;9.45;;
27857;SDS011;16852;51.446;6.528;2023-06-22T10:19:28;9.27;;;7.57;;
27857;SDS011;16852;51.446;6.528;2023-06-22T10:21:29;9.93;;;8.40;;
27857;SDS011;16852;51.446;6.528;2023-06-22T10:23:29;10.48;;;8.07;;
27857;SDS011;16852;51.446;6.528;2023-06-22T10:25:30;8.43;;;7.55;;
27857;SDS011;16852;51.446;6.528;2023-06-22T10:27:30;11.45;;;7.95;;
27857;SDS011;16852;51.446;6.528;2023-06-22T10:29:31;14.25;;;10.45;;
27857;SDS011;16852;51.446;6.528;2023-06-22T10:31:32;11.32;;;8.55;;
27857;SDS011;16852;51.446;6.528;2023-06-22T10:33:32;13.52;;;9.65;;
27857;SDS011;16852;51.446;6.528;2023-06-22T10:35:33;11.10;;;8.57;;
27857;SDS011;16852;51.446;6.528;2023-06-22T10:37:34;8.25;;;6.63;;
27857;SDS011;16852;51.446;6.528;2023-06-22T10:39:35;14.35;;;10.60;;
27857;SDS011;16852;51.446;6.528;2023-06-22T10:41:35;11.48;;;8.05;;
27857;SDS011;16852;51.446;6.528;2023-06-22T10:43:36;9.98;;;7.43;;
27857;SDS011;16852;51.446;6.528;2023-06-22T10:45:36;9.48;;;7.65;;
27857;SDS011;16852;51.446;6.528;2023-06-22T10:47:37;11.55;;;7.97;;
27857;SDS011;16852;51.446;6.528;2023-06-22T10:49:38;10.32;;;8.27;;
27857;SDS011;16852;51.446;6.528;2023-06-22T10:51:39;10.10;;;8.18;;
27857;SDS011;16852;51.446;6.528;2023-06-22T10:53:39;8.90;;;7.70;;
27857;SDS011;16852;51.446;6.528;2023-06-22T10:55:40;9.70;;;7.82;;
27857;SDS011;16852;51.446;6.528;2023-06-22T10:57:40;8.48;;;7.13;;
27857;SDS011;16852;51.446;6.528;2023-06-22T10:59:46;8.02;;;6.75;;
27857;SDS011;16852;51.446;6.528;2023-06-22T11:01:47;9.50;;;6.88;;
27857;SDS011;16852;51.446;6.528;2023-06-22T11:03:48;11.73;;;9.45;;
27857;SDS011;16852;51.446;6.528;2023-06-22T11:05:48;10.60;;;8.43;;
27857;SDS011;16852;51.446;6.528;2023-06-22T11:07:49;10.90;;;8.90;;
27857;SDS011;16852;51.446;6.528;2023-06-22T11:09:50;9.75;;;8.02;;
27857;SDS011;16852;51.446;6.528;2023-06-22T11:11:51;9.13;;;8.02;;
27857;SDS011;16852;51.446;6.528;2023-06-22T11:13:53;11.55;;;8.82;;
27857;SDS011;16852;51.446;6.528;2023-06-22T11:15:53;14.27;;;10.43;;
27857;SDS011;16852;51.446;6.528;2023-06-22T11:17:54;12.20;;;9.75;;
27857;SDS011;16852;51.446;6.528;2023-06-22T11:19:55;10.38;;;8.50;;
27857;SDS011;16852;51.446;6.528;2023-06-22T11:21:55;12.85;;;7.82;;
27857;SDS011;16852;51.446;6.528;2023-06-22T11:23:56;10.20;;;8.43;;
27857;SDS011;16852;51.446;6.528;2023-06-22T11:25:57;9.02;;;6.95;;
27857;SDS011;16852;51.446;6.528;2023-06-22T11:27:58;9.45;;;8.13;;
27857;SDS011;16852;51.446;6.528;2023-06-22T11:29:58;10.73;;;7.88;;
27857;SDS011;16852;51.446;6.528;2023-06-22T11:31:59;8.88;;;7.05;;
27857;SDS011;16852;51.446;6.528;2023-06-22T11:34:00;8.07;;;7.07;;
27857;SDS011;16852;51.446;6.528;2023-06-22T11:36:01;8.57;;;6.90;;
27857;SDS011;16852;51.446;6.528;2023-06-22T11:38:02;8.95;;;6.82;;
27857;SDS011;16852;51.446;6.528;2023-06-22T11:40:04;7.72;;;6.93;;
27857;SDS011;16852;51.446;6.528;2023-06-22T11:42:07;10.43;;;7.68;;
27857;SDS011;16852;51.446;6.528;2023-06-22T11:44:08;17.45;;;11.18;;
27857;SDS011;16852;51.446;6.528;2023-06-22T11:46:09;16.80;;;10.90;;
27857;SDS011;16852;51.446;6.528;2023-06-22T11:48:10;15.75;;;10.80;;
27857;SDS011;16852;51.446;6.528;2023-06-22T11:50:11;11.48;;;8.25;;
27857;SDS011;16852;51.446;6.528;2023-06-22T11:52:11;10.90;;;8.45;;
27857;SDS011;16852;51.446;6.528;2023-06-22T11:54:12;14.00;;;9.50;;
27857;SDS011;16852;51.446;6.528;2023-06-22T11:56:12;13.43;;;9.57;;
27857;SDS011;16852;51.446;6.528;2023-06-22T11:58:13;11.85;;;8.90;;
27857;SDS011;16852;51.446;6.528;2023-06-22T12:00:14;13.93;;;10.40;;
27857;SDS011;16852;51.446;6.528;2023-06-22T12:02:17;11.48;;;9.50;;
27857;SDS011;16852;51.446;6.528;2023-06-22T12:04:18;12.13;;;10.18;;
27857;SDS011;16852;51.446;6.528;2023-06-22T12:06:18;11.23;;;9.50;;
27857;SDS011;16852;51.446;6.528;2023-06-22T12:08:19;12.43;;;9.65;;
27857;SDS011;16852;51.446;6.528;2023-06-22T12:10:20;12.05;;;9.85;;
27857;SDS011;16852;51.446;6.528;2023-06-22T12:12:22;8.95;;;7.95;;
27857;SDS011;16852;51.446;6.528;2023-06-22T12:14:22;12.02;;;9.18;;
27857;SDS011;16852;51.446;6.528;2023-06-22T12:16:23;12.15;;;9.57;;
27857;SDS011;16852;51.446;6.528;2023-06-22T12:18:24;10.68;;;9.07;;
27857;SDS011;16852;51.446;6.528;2023-06-22T12:20:25;12.32;;;9.00;;